Time;durP1;ratioP1;P1;durP2;ratioP2;P2;SDS_P1;SDS_P2;PMS_P1;PMS_P2;Temp;Humidity;BMP_temperature;BMP_pressure;BME280_temperature;BME280_humidity;BME280_pressure;Samples;Min_cycle;Max_cycle;Signal;HPM_P1;HPM_P2
2022/01/31 00:00:25;;;;;;;5.30;1.80;;;;;3.40;96710.80;;;;111200;1247;41230;-65
2022/01/31 00:03:06;;;;;;;11.00;2.50;;;;;3.30;96705.00;;;;111168;1246;41257;-66
2022/01/31 00:05:36;;;;;;;7.10;2.10;;;;;3.30;96707.60;;;;111159;1247;42847;-66
2022/01/31 00:08:05;;;;;;;8.10;2.40;;;;;3.30;96710.40;;;;111233;1246;41152;-65
2022/01/31 00:10:36;;;;;;;5.60;2.00;;;;;3.26;96711.00;;;;111164;1247;41409;-65
2022/01/31 00:13:09;;;;;;;10.50;2.40;;;;;3.20;96706.40;;;;111190;1247;41610;-67
2022/01/31 00:15:42;;;;;;;6.10;2.20;;;;;3.20;96719.80;;;;111206;1247;41272;-66
2022/01/31 00:18:12;;;;;;;7.30;2.30;;;;;3.20;96720.60;;;;110918;1248;41942;-65
2022/01/31 00:20:42;;;;;;;8.10;2.30;;;;;3.18;96729.40;;;;111310;1246;41127;-64
2022/01/31 00:23:11;;;;;;;3.20;1.80;;;;;3.20;96738.00;;;;111048;1246;41220;-65
2022/01/31 00:25:41;;;;;;;9.60;2.10;;;;;3.20;96746.20;;;;111223;1247;41243;-67
2022/01/31 00:28:10;;;;;;;7.60;2.00;;;;;3.06;96744.80;;;;111094;1247;41500;-59
2022/01/31 00:30:40;;;;;;;6.10;2.20;;;;;3.00;96743.80;;;;111004;1249;41553;-65
2022/01/31 00:33:10;;;;;;;4.20;2.00;;;;;2.96;96740.40;;;;111122;1246;41257;-63
2022/01/31 00:35:40;;;;;;;6.30;2.00;;;;;2.80;96749.00;;;;111183;1247;41543;-62
2022/01/31 00:38:09;;;;;;;7.40;2.10;;;;;2.76;96744.20;;;;111023;1250;41270;-65
2022/01/31 00:40:42;;;;;;;7.00;1.80;;;;;2.80;96746.40;;;;111080;1247;41434;-67
2022/01/31 00:43:12;;;;;;;6.30;2.00;;;;;2.70;96748.60;;;;111217;1247;41361;-64
2022/01/31 00:45:57;;;;;;;;;;;;;2.50;96748.40;;;;111069;1246;41381;-66
2022/01/31 00:48:30;;;;;;;7.10;2.20;;;;;2.50;96734.20;;;;111262;1247;41254;-64
2022/01/31 00:50:59;;;;;;;9.30;2.20;;;;;2.50;96738.20;;;;110997;1249;41614;-61
2022/01/31 00:53:29;;;;;;;10.20;2.30;;;;;2.40;96740.40;;;;110905;1249;41181;-63
2022/01/31 00:55:59;;;;;;;6.10;2.20;;;;;2.40;96740.60;;;;111193;1248;41394;-63
2022/01/31 00:58:30;;;;;;;10.10;2.60;;;;;2.38;96741.00;;;;111015;1249;41631;-62
2022/01/31 01:00:59;;;;;;;7.20;2.10;;;;;2.40;96732.20;;;;111089;1247;41153;-67
2022/01/31 01:03:30;;;;;;;6.20;2.10;;;;;2.30;96737.00;;;;111210;1247;41248;-65
2022/01/31 01:06:00;;;;;;;10.00;2.20;;;;;2.30;96733.00;;;;110999;1249;41596;-64
2022/01/31 01:08:30;;;;;;;3.50;2.10;;;;;2.20;96728.40;;;;111008;1249;41740;-59
2022/01/31 01:11:01;;;;;;;7.30;2.10;;;;;2.14;96738.80;;;;111012;1249;42367;-61
2022/01/31 01:13:31;;;;;;;6.00;2.10;;;;;2.20;96729.00;;;;111068;1248;41153;-61
2022/01/31 01:16:02;;;;;;;7.20;2.60;;;;;2.12;96730.20;;;;111112;1246;41495;-62
2022/01/31 01:18:32;;;;;;;2.90;1.60;;;;;2.10;96719.60;;;;110995;1248;41628;-61
2022/01/31 01:21:02;;;;;;;7.50;2.40;;;;;2.00;96721.60;;;;111224;1247;41899;-61
2022/01/31 01:23:32;;;;;;;4.70;2.00;;;;;2.06;96718.80;;;;111083;1247;41541;-62
2022/01/31 01:26:03;;;;;;;7.50;2.50;;;;;2.00;96711.40;;;;111089;1248;41150;-61
2022/01/31 01:28:32;;;;;;;8.80;2.50;;;;;1.94;96706.00;;;;111025;1247;41165;-62
2022/01/31 01:31:03;;;;;;;6.70;2.30;;;;;1.96;96706.00;;;;111093;1247;42023;-60
2022/01/31 01:33:40;;;;;;;9.90;2.30;;;;;1.90;96711.40;;;;111102;1246;42602;-66
2022/01/31 01:36:11;;;;;;;7.80;2.60;;;;;1.90;96708.40;;;;111006;1249;41260;-61
2022/01/31 01:38:41;;;;;;;7.70;2.20;;;;;1.80;96709.20;;;;111049;1249;41261;-61
2022/01/31 01:41:11;;;;;;;4.20;2.00;;;;;1.80;96713.80;;;;111068;1246;41375;-61
2022/01/31 01:43:42;;;;;;;6.70;2.10;;;;;1.80;96708.80;;;;111055;1248;41797;-61
2022/01/31 01:46:11;;;;;;;8.80;2.40;;;;;1.80;96708.20;;;;111229;1247;41141;-61
2022/01/31 01:48:41;;;;;;;5.40;1.90;;;;;1.80;96705.00;;;;111075;1248;42374;-63
2022/01/31 01:51:14;;;;;;;13.60;2.50;;;;;1.78;96699.40;;;;111163;1247;41254;-61
2022/01/31 01:53:45;;;;;;;8.30;2.40;;;;;1.80;96697.40;;;;111107;1248;41369;-60
2022/01/31 01:56:15;;;;;;;10.20;3.00;;;;;1.80;96694.20;;;;111364;1247;41719;-62
2022/01/31 01:58:48;;;;;;;;;;;;;1.80;96690.40;;;;111106;1248;41159;-63
2022/01/31 02:01:19;;;;;;;9.50;2.40;;;;;1.90;96709.80;;;;111061;1248;41159;-64
2022/01/31 02:03:52;;;;;;;9.20;3.00;;;;;1.94;96703.40;;;;111013;1246;41635;-68
2022/01/31 02:06:26;;;;;;;6.80;2.50;;;;;2.00;96701.60;;;;111062;1246;42082;-62
2022/01/31 02:08:56;;;;;;;8.70;2.20;;;;;2.00;96701.00;;;;111150;1247;41155;-62
2022/01/31 02:11:31;;;;;;;6.70;2.20;;;;;2.10;96712.00;;;;111152;1246;41644;-66
2022/01/31 02:14:02;;;;;;;8.90;2.70;;;;;2.10;96708.40;;;;111027;1249;41244;-64
2022/01/31 02:17:06;;;;;;;8.00;2.50;;;;;2.20;96716.00;;;;110803;1248;41263;-65
2022/01/31 02:19:41;;;;;;;8.40;2.40;;;;;2.20;96705.40;;;;111124;1247;42400;-67
2022/01/31 02:22:20;;;;;;;7.80;2.20;;;;;2.20;96711.60;;;;111235;1247;41268;-65
2022/01/31 02:24:59;;;;;;;10.80;2.30;;;;;2.28;96709.00;;;;111217;1247;41257;-66
2022/01/31 02:27:58;;;;;;;6.30;2.30;;;;;2.24;96707.80;;;;110920;1248;41525;-63
2022/01/31 02:30:31;;;;;;;9.00;2.60;;;;;2.24;96716.00;;;;111025;1247;41653;-66
2022/01/31 02:33:01;;;;;;;8.80;2.90;;;;;2.30;96718.20;;;;111233;1247;41715;-65
2022/01/31 02:35:31;;;;;;;7.60;2.20;;;;;2.30;96720.40;;;;110996;1249;41713;-67
2022/01/31 02:38:01;;;;;;;6.90;2.00;;;;;2.30;96728.40;;;;110959;1249;41182;-64
2022/01/31 02:40:31;;;;;;;5.40;2.10;;;;;2.32;96719.80;;;;111236;1246;41154;-65
2022/01/31 02:43:04;;;;;;;10.10;2.60;;;;;2.34;96732.60;;;;111275;1247;42092;-63
2022/01/31 02:45:34;;;;;;;10.10;2.80;;;;;2.40;96723.40;;;;111016;1249;41499;-60
2022/01/31 02:48:05;;;;;;;7.60;2.30;;;;;2.32;96729.00;;;;111070;1249;41604;-61
2022/01/31 02:50:39;;;;;;;5.70;2.20;;;;;2.30;96742.00;;;;111053;1249;41155;-64
2022/01/31 02:53:12;;;;;;;10.10;2.40;;;;;2.40;96736.20;;;;111158;1248;41156;-62
2022/01/31 02:55:44;;;;;;;8.70;2.50;;;;;2.40;96742.20;;;;111240;1247;41970;-63
2022/01/31 02:58:18;;;;;;;9.30;2.30;;;;;2.30;96735.80;;;;111020;1248;41205;-65
2022/01/31 03:00:50;;;;;;;9.80;2.70;;;;;2.40;96733.80;;;;110817;1249;42373;-67
2022/01/31 03:03:31;;;;;;;9.10;2.50;;;;;2.38;96736.40;;;;111045;1249;41266;-64
2022/01/31 03:06:02;;;;;;;10.60;2.70;;;;;2.40;96743.00;;;;111073;1246;41722;-63
2022/01/31 03:08:32;;;;;;;9.10;2.20;;;;;2.40;96744.60;;;;111110;1247;41261;-62
2022/01/31 03:11:14;;;;;;;10.60;2.70;;;;;2.40;96748.00;;;;111143;1247;41352;-65
2022/01/31 03:14:10;;;;;;;8.60;2.60;;;;;2.40;96742.60;;;;111209;1247;41392;-63
2022/01/31 03:16:44;;;;;;;7.50;2.00;;;;;2.30;96748.40;;;;111143;1247;41258;-63
2022/01/31 03:19:33;;;;;;;9.10;2.50;;;;;2.20;96748.00;;;;111044;1248;41594;-64
2022/01/31 03:22:05;;;;;;;11.70;2.90;;;;;2.20;96752.20;;;;111029;1247;41254;-64
2022/01/31 03:24:36;;;;;;;10.80;3.00;;;;;2.10;96757.40;;;;111007;1249;41139;-65
2022/01/31 03:27:06;;;;;;;7.70;2.60;;;;;2.10;96746.60;;;;110885;1249;41269;-63
2022/01/31 03:29:36;;;;;;;10.50;2.30;;;;;2.10;96750.40;;;;111130;1247;41252;-66
2022/01/31 03:32:06;;;;;;;7.80;2.40;;;;;2.02;96742.60;;;;110886;1249;41185;-68
2022/01/31 03:34:36;;;;;;;9.80;2.50;;;;;1.98;96750.00;;;;111118;1248;41183;-63
2022/01/31 03:37:06;;;;;;;7.70;2.50;;;;;1.96;96745.60;;;;111020;1248;41616;-65
2022/01/31 03:39:36;;;;;;;7.20;2.20;;;;;1.90;96746.80;;;;111093;1247;41261;-64
2022/01/31 03:42:06;;;;;;;9.70;2.90;;;;;1.90;96736.60;;;;111042;1248;41263;-64
2022/01/31 03:44:36;;;;;;;7.60;2.20;;;;;1.82;96739.80;;;;111033;1246;41133;-63
2022/01/31 03:47:06;;;;;;;10.40;2.90;;;;;1.90;96737.40;;;;111042;1246;41126;-61
2022/01/31 03:49:36;;;;;;;8.20;2.40;;;;;1.90;96731.80;;;;110990;1246;41145;-62
2022/01/31 03:52:11;;;;;;;16.20;3.30;;;;;1.86;96732.00;;;;111100;1246;41596;-66
2022/01/31 03:54:49;;;;;;;11.00;2.60;;;;;1.70;96729.20;;;;111139;1247;41984;-63
2022/01/31 03:57:19;;;;;;;8.60;2.40;;;;;1.70;96726.20;;;;111091;1248;41146;-59
2022/01/31 03:59:53;;;;;;;7.30;2.90;;;;;1.70;96723.60;;;;111058;1249;41257;-62
2022/01/31 04:02:23;;;;;;;9.00;2.60;;;;;1.70;96726.60;;;;111057;1250;41576;-60
2022/01/31 04:04:53;;;;;;;11.70;2.50;;;;;1.70;96721.20;;;;111240;1246;41720;-60
2022/01/31 04:07:23;;;;;;;11.00;2.70;;;;;1.70;96720.80;;;;111103;1246;41148;-64
2022/01/31 04:09:53;;;;;;;12.70;2.90;;;;;1.70;96730.40;;;;111114;1248;41153;-61
2022/01/31 04:12:22;;;;;;;8.30;2.50;;;;;1.70;96726.00;;;;111078;1247;41412;-62
2022/01/31 04:14:52;;;;;;;15.40;2.70;;;;;1.80;96734.20;;;;111118;1246;41759;-61
2022/01/31 04:17:24;;;;;;;9.30;2.40;;;;;1.70;96730.00;;;;111008;1249;41286;-66
2022/01/31 04:19:54;;;;;;;6.20;2.00;;;;;1.80;96728.20;;;;111165;1247;42250;-62
2022/01/31 04:22:27;;;;;;;6.70;2.20;;;;;1.80;96729.40;;;;111196;1248;41597;-62
2022/01/31 04:25:00;;;;;;;12.30;2.90;;;;;1.80;96739.40;;;;111117;1247;41185;-66
2022/01/31 04:27:43;;;;;;;12.40;2.70;;;;;1.80;96753.40;;;;111171;1247;42071;-60
2022/01/31 04:30:15;;;;;;;8.10;2.60;;;;;1.78;96759.00;;;;111096;1247;41616;-64
2022/01/31 04:32:44;;;;;;;;;;;;;1.80;96762.60;;;;111093;1248;41628;-60
2022/01/31 04:35:14;;;;;;;10.90;2.80;;;;;1.76;96761.80;;;;111079;1247;41974;-63
2022/01/31 04:37:44;;;;;;;9.10;2.50;;;;;1.80;96762.40;;;;111090;1246;41254;-63
2022/01/31 04:40:14;;;;;;;10.60;2.70;;;;;1.80;96756.80;;;;111230;1247;41269;-65
2022/01/31 04:42:45;;;;;;;10.20;2.60;;;;;1.80;96749.60;;;;111035;1248;41260;-65
2022/01/31 04:45:15;;;;;;;7.40;2.20;;;;;1.80;96760.20;;;;110986;1248;41148;-63
2022/01/31 04:47:45;;;;;;;11.20;2.90;;;;;1.70;96763.60;;;;111232;1248;41155;-65
2022/01/31 04:50:14;;;;;;;10.80;2.90;;;;;1.70;96770.80;;;;111214;1247;42425;-62
2022/01/31 04:52:44;;;;;;;7.60;2.70;;;;;1.68;96767.80;;;;111108;1248;41628;-67
2022/01/31 04:55:13;;;;;;;12.00;3.30;;;;;1.64;96762.80;;;;111257;1247;41137;-65
2022/01/31 04:57:43;;;;;;;9.80;2.20;;;;;1.60;96763.20;;;;111145;1249;41165;-62
2022/01/31 05:00:13;;;;;;;9.00;2.30;;;;;1.70;96751.00;;;;111251;1246;41900;-60
2022/01/31 05:02:42;;;;;;;8.90;2.60;;;;;1.70;96752.80;;;;111001;1248;41263;-61
2022/01/31 05:05:12;;;;;;;17.00;2.70;;;;;1.60;96753.40;;;;111173;1247;40893;-66
2022/01/31 05:07:42;;;;;;;9.90;3.00;;;;;1.62;96753.40;;;;111073;1247;41132;-63
2022/01/31 05:10:11;;;;;;;10.90;2.80;;;;;1.60;96748.00;;;;111204;1247;42058;-66
2022/01/31 05:12:41;;;;;;;10.20;2.60;;;;;1.62;96741.60;;;;111090;1247;41291;-64
2022/01/31 05:15:10;;;;;;;11.00;2.50;;;;;1.68;96736.60;;;;110936;1249;41250;-63
2022/01/31 05:17:40;;;;;;;14.20;3.20;;;;;1.70;96741.00;;;;111146;1248;41644;-65
2022/01/31 05:20:10;;;;;;;8.00;2.40;;;;;1.66;96737.20;;;;111142;1248;41655;-62
2022/01/31 05:22:39;;;;;;;13.90;3.20;;;;;1.70;96742.20;;;;111255;1247;41152;-62
2022/01/31 05:25:09;;;;;;;11.00;2.40;;;;;1.68;96744.80;;;;111107;1248;41395;-64
2022/01/31 05:27:39;;;;;;;14.40;3.00;;;;;1.60;96748.40;;;;111063;1249;42018;-64
2022/01/31 05:30:09;;;;;;;10.90;3.00;;;;;1.60;96756.20;;;;111269;1247;42510;-65
2022/01/31 05:32:38;;;;;;;12.20;2.90;;;;;1.60;96758.40;;;;111066;1248;41686;-62
2022/01/31 05:35:08;;;;;;;10.40;2.70;;;;;1.50;96760.40;;;;111224;1247;41251;-61
2022/01/31 05:37:37;;;;;;;14.40;2.90;;;;;1.50;96772.20;;;;111134;1247;42075;-61
2022/01/31 05:40:07;;;;;;;12.60;3.20;;;;;1.50;96767.60;;;;111024;1248;42004;-60
2022/01/31 05:42:36;;;;;;;12.80;3.10;;;;;1.52;96774.00;;;;111114;1248;41382;-60
2022/01/31 05:45:09;;;;;;;11.80;2.80;;;;;1.40;96779.40;;;;111241;1247;41260;-62
2022/01/31 05:47:38;;;;;;;10.00;2.40;;;;;1.40;96776.20;;;;111241;1246;41300;-62
2022/01/31 05:50:09;;;;;;;9.00;2.70;;;;;1.40;96781.60;;;;111095;1247;41610;-59
2022/01/31 05:52:38;;;;;;;13.20;2.50;;;;;1.48;96796.80;;;;111077;1246;41125;-61
2022/01/31 05:55:08;;;;;;;12.70;3.10;;;;;1.52;96793.60;;;;111163;1248;41146;-61
2022/01/31 05:57:37;;;;;;;9.50;2.50;;;;;1.60;96809.00;;;;110985;1248;41130;-61
2022/01/31 06:00:08;;;;;;;4.20;1.90;;;;;1.70;96808.80;;;;111148;1249;41203;-62
2022/01/31 06:02:39;;;;;;;;;;;;;1.80;96819.20;;;;111091;1248;41143;-60
2022/01/31 06:05:09;;;;;;;14.20;2.70;;;;;1.90;96820.80;;;;111118;1248;41159;-62
2022/01/31 06:07:40;;;;;;;10.90;2.90;;;;;1.90;96814.60;;;;111108;1249;41214;-61
2022/01/31 06:10:10;;;;;;;7.80;2.50;;;;;1.90;96822.00;;;;111107;1249;41782;-60
2022/01/31 06:12:41;;;;;;;11.30;2.70;;;;;1.92;96818.80;;;;111133;1248;41621;-64
2022/01/31 06:15:13;;;;;;;13.30;3.10;;;;;1.98;96821.60;;;;111076;1248;42088;-62
2022/01/31 06:17:43;;;;;;;8.40;2.60;;;;;2.00;96817.60;;;;111070;1248;41631;-65
2022/01/31 06:20:13;;;;;;;8.80;2.30;;;;;1.90;96818.40;;;;111101;1248;41681;-63
2022/01/31 06:22:46;;;;;;;12.40;2.80;;;;;1.90;96825.40;;;;110965;1248;41945;-65
2022/01/31 06:25:15;;;;;;;9.60;2.60;;;;;1.96;96825.20;;;;111083;1246;41135;-64
2022/01/31 06:27:46;;;;;;;9.90;2.50;;;;;1.90;96827.60;;;;111015;1248;41175;-63
2022/01/31 06:30:15;;;;;;;8.00;2.70;;;;;1.90;96834.40;;;;111030;1248;41146;-62
2022/01/31 06:32:47;;;;;;;10.80;2.60;;;;;1.96;96833.60;;;;110930;1250;41145;-64
2022/01/31 06:35:17;;;;;;;10.30;2.80;;;;;1.94;96842.00;;;;111091;1249;41140;-62
2022/01/31 06:37:47;;;;;;;;;;;;;2.00;96840.20;;;;111129;1248;41796;-65
2022/01/31 06:40:16;;;;;;;11.40;3.00;;;;;2.00;96831.20;;;;111118;1248;41543;-68
2022/01/31 06:42:46;;;;;;;11.10;2.70;;;;;1.92;96831.60;;;;111110;1248;42653;-65
2022/01/31 06:45:16;;;;;;;10.50;3.40;;;;;2.02;96830.00;;;;111076;1248;41317;-65
2022/01/31 06:47:45;;;;;;;11.70;3.70;;;;;2.10;96837.20;;;;111092;1248;42028;-64
2022/01/31 06:50:15;;;;;;;11.20;2.30;;;;;2.04;96842.00;;;;111048;1247;41134;-68
2022/01/31 06:52:44;;;;;;;8.90;2.70;;;;;2.10;96836.40;;;;111202;1247;42041;-65
2022/01/31 06:55:19;;;;;;;8.70;2.40;;;;;2.20;96842.00;;;;111237;1247;41899;-63
2022/01/31 06:57:51;;;;;;;12.40;3.20;;;;;2.20;96837.00;;;;111280;1248;42109;-66
2022/01/31 07:00:20;;;;;;;;;;;;;2.38;96834.80;;;;111192;1248;41146;-66
2022/01/31 07:02:50;;;;;;;9.30;2.60;;;;;2.42;96847.40;;;;111281;1247;41126;-65
2022/01/31 07:05:19;;;;;;;10.30;3.20;;;;;2.40;96846.20;;;;111241;1247;41384;-64
2022/01/31 07:07:48;;;;;;;13.80;2.80;;;;;2.50;96840.20;;;;111182;1247;41253;-65
2022/01/31 07:10:18;;;;;;;13.30;3.20;;;;;2.42;96844.20;;;;111242;1247;41183;-66
2022/01/31 07:12:51;;;;;;;9.30;2.80;;;;;2.50;96840.80;;;;110989;1249;41619;-64
2022/01/31 07:15:21;;;;;;;14.10;3.50;;;;;2.50;96838.80;;;;111239;1247;41610;-62
2022/01/31 07:17:50;;;;;;;13.00;3.30;;;;;2.50;96835.40;;;;111204;1247;41293;-61
2022/01/31 07:20:23;;;;;;;10.80;3.40;;;;;2.50;96838.20;;;;111249;1247;41748;-65
2022/01/31 07:23:02;;;;;;;10.90;3.60;;;;;2.60;96836.00;;;;111232;1247;41216;-61
2022/01/31 07:25:35;;;;;;;11.60;3.10;;;;;2.62;96836.40;;;;111231;1247;41607;-62
2022/01/31 07:28:08;;;;;;;11.80;2.80;;;;;2.70;96833.40;;;;111018;1247;41610;-62
2022/01/31 07:30:39;;;;;;;11.80;2.80;;;;;2.68;96827.00;;;;111050;1248;41627;-66
2022/01/31 07:33:10;;;;;;;12.10;3.10;;;;;2.80;96824.00;;;;111005;1247;41175;-62
2022/01/31 07:35:45;;;;;;;13.00;3.10;;;;;2.80;96827.40;;;;111085;1248;41611;-66
2022/01/31 07:38:16;;;;;;;11.00;3.30;;;;;2.90;96819.60;;;;110903;1247;41399;-62
2022/01/31 07:40:47;;;;;;;11.70;3.10;;;;;3.00;96815.60;;;;111197;1247;41150;-61
2022/01/31 07:43:16;;;;;;;16.70;3.50;;;;;2.86;96813.40;;;;110888;1248;41238;-64
2022/01/31 07:45:45;;;;;;;15.10;4.10;;;;;2.90;96808.40;;;;111129;1246;41723;-63
2022/01/31 07:48:16;;;;;;;15.10;5.10;;;;;2.96;96798.60;;;;110820;1249;41205;-65
2022/01/31 07:50:46;;;;;;;16.00;3.60;;;;;3.20;96796.60;;;;111131;1247;41278;-60
2022/01/31 07:53:19;;;;;;;13.90;3.60;;;;;3.50;96796.40;;;;111080;1248;41128;-67
2022/01/31 07:55:48;;;;;;;13.30;4.00;;;;;3.80;96789.20;;;;110796;1250;41217;-65
2022/01/31 07:58:18;;;;;;;19.50;4.90;;;;;4.00;96787.20;;;;110885;1249;41260;-59
2022/01/31 08:00:48;;;;;;;18.90;5.00;;;;;4.26;96785.80;;;;111120;1248;41860;-67
2022/01/31 08:03:19;;;;;;;20.20;5.80;;;;;4.40;96801.40;;;;111062;1249;41407;-62
2022/01/31 08:05:50;;;;;;;13.20;4.70;;;;;4.44;96794.80;;;;110887;1251;41158;-60
2022/01/31 08:08:20;;;;;;;21.30;4.80;;;;;4.52;96793.40;;;;110896;1251;41153;-67
2022/01/31 08:10:51;;;;;;;12.10;4.10;;;;;4.60;96787.60;;;;110977;1250;42403;-61
2022/01/31 08:13:20;;;;;;;17.00;4.80;;;;;4.70;96786.20;;;;111210;1247;41601;-61
2022/01/31 08:16:02;;;;;;;22.60;6.70;;;;;4.90;96785.20;;;;111038;1249;41245;-62
2022/01/31 08:18:30;;;;;;;;;;;;;5.00;96783.00;;;;111033;1249;41992;-62
2022/01/31 08:21:03;;;;;;;14.40;4.20;;;;;5.10;96780.20;;;;111049;1248;41154;-62
2022/01/31 08:23:32;;;;;;;16.60;3.50;;;;;5.20;96778.20;;;;111180;1247;42138;-63
2022/01/31 08:26:04;;;;;;;15.20;4.20;;;;;5.30;96775.60;;;;111040;1248;42186;-65
2022/01/31 08:28:43;;;;;;;14.60;4.90;;;;;5.48;96775.40;;;;111040;1249;41177;-60
2022/01/31 08:33:48;;;;;;;18.00;5.20;;;;;5.80;96771.80;;;;111094;1249;42411;-64
2022/01/31 08:36:17;;;;;;;19.00;5.70;;;;;6.24;96758.00;;;;111039;1248;42168;-63
2022/01/31 08:38:47;;;;;;;28.40;5.90;;;;;7.00;96756.20;;;;111004;1248;41409;-65
2022/01/31 08:41:16;;;;;;;14.90;3.90;;;;;7.12;96749.40;;;;111065;1248;41819;-64
2022/01/31 08:43:45;;;;;;;13.70;4.20;;;;;7.12;96751.60;;;;111074;1247;41191;-64
2022/01/31 08:46:15;;;;;;;12.50;3.90;;;;;7.12;96747.40;;;;111035;1249;41191;-65
2022/01/31 08:48:44;;;;;;;18.50;5.00;;;;;7.30;96734.20;;;;111111;1247;41696;-63
2022/01/31 08:51:14;;;;;;;14.70;3.70;;;;;7.38;96723.20;;;;111050;1248;41579;-64
2022/01/31 08:53:43;;;;;;;10.20;3.30;;;;;8.96;96718.00;;;;111032;1247;41168;-61
2022/01/31 08:56:12;;;;;;;13.20;3.30;;;;;10.80;96694.60;;;;111231;1247;41689;-63
2022/01/31 08:58:47;;;;;;;10.90;3.30;;;;;13.50;96679.40;;;;111258;1246;41132;-61
2022/01/31 09:01:19;;;;;;;9.50;3.00;;;;;15.08;96660.00;;;;111279;1247;41406;-62
2022/01/31 09:06:27;;;;;;;11.80;2.90;;;;;19.00;96645.00;;;;111154;1247;41186;-62
2022/01/31 09:08:58;;;;;;;13.20;3.10;;;;;20.54;96638.00;;;;111237;1246;41808;-61
2022/01/31 09:11:29;;;;;;;9.50;2.80;;;;;22.48;96628.20;;;;111101;1247;41149;-62
2022/01/31 09:13:59;;;;;;;11.60;2.90;;;;;22.40;96630.40;;;;111247;1246;41814;-64
2022/01/31 09:16:28;;;;;;;9.00;2.70;;;;;23.68;96628.40;;;;111225;1247;41627;-60
2022/01/31 09:18:57;;;;;;;10.80;2.60;;;;;25.40;96615.80;;;;111245;1247;41936;-61
2022/01/31 09:21:27;;;;;;;14.80;2.70;;;;;26.02;96611.20;;;;111204;1246;41151;-60
2022/01/31 09:23:56;;;;;;;10.40;2.90;;;;;26.08;96606.20;;;;111247;1246;41334;-61
2022/01/31 09:26:26;;;;;;;13.60;3.00;;;;;26.94;96600.20;;;;111274;1247;41127;-61
2022/01/31 09:28:55;;;;;;;7.90;2.30;;;;;28.24;96597.00;;;;111148;1247;41142;-63
2022/01/31 09:31:25;;;;;;;12.80;3.00;;;;;28.30;96591.60;;;;111264;1247;41270;-60
2022/01/31 09:33:54;;;;;;;14.70;4.50;;;;;29.80;96598.00;;;;111271;1247;41181;-61
2022/01/31 09:36:23;;;;;;;9.50;2.60;;;;;30.40;96585.60;;;;111218;1246;41255;-59
2022/01/31 09:38:52;;;;;;;13.50;2.90;;;;;30.90;96572.40;;;;111226;1247;41133;-60
2022/01/31 09:41:24;;;;;;;10.20;3.10;;;;;31.52;96567.20;;;;111252;1246;41598;-61
2022/01/31 09:44:09;;;;;;;9.10;2.40;;;;;31.90;96559.80;;;;111231;1247;41876;-59
2022/01/31 09:46:47;;;;;;;8.60;2.30;;;;;32.36;96565.60;;;;111264;1247;41124;-59
2022/01/31 09:49:18;;;;;;;13.50;3.50;;;;;28.52;96554.20;;;;111288;1246;41620;-58
2022/01/31 09:51:47;;;;;;;;;;;;;25.64;96551.80;;;;111270;1247;41190;-61
2022/01/31 09:54:16;;;;;;;11.50;2.50;;;;;26.22;96542.60;;;;111283;1247;41387;-59
2022/01/31 09:56:46;;;;;;;7.30;2.50;;;;;27.34;96539.60;;;;111250;1247;41643;-62
2022/01/31 09:59:17;;;;;;;13.60;3.00;;;;;25.98;96537.60;;;;111238;1247;41128;-61
2022/01/31 10:01:52;;;;;;;11.40;3.60;;;;;21.94;96549.80;;;;111237;1247;42009;-59
2022/01/31 10:04:24;;;;;;;10.80;3.10;;;;;22.52;96550.00;;;;111112;1247;41976;-58
2022/01/31 10:06:54;;;;;;;13.10;2.80;;;;;20.12;96572.00;;;;111258;1246;41960;-62
2022/01/31 10:09:24;;;;;;;;;;;;;17.52;96576.20;;;;111107;1246;42233;-58
2022/01/31 10:16:24;;;;;;;15.00;3.40;;;;;13.52;96588.60;;;;111244;1247;41600;-59
2022/01/31 10:18:02;;;;;;;11.20;3.20;;;;;10.40;96609.60;;;;111113;1247;41992;-60
2022/01/31 10:20:33;;;;;;;12.40;3.30;;;;;10.46;96609.00;;;;111231;1247;41918;-59
2022/01/31 10:23:06;;;;;;;;;;;;;9.64;96606.40;;;;111286;1246;41938;-58
2022/01/31 10:25:35;;;;;;;12.80;3.30;;;;;9.46;96600.20;;;;111263;1245;41261;-61
2022/01/31 10:28:17;;;;;;;9.80;3.40;;;;;9.62;96602.60;;;;111125;1247;41156;-59
2022/01/31 10:30:47;;;;;;;8.90;3.00;;;;;8.64;96600.20;;;;111149;1247;41440;-65
2022/01/31 10:33:18;;;;;;;12.40;3.30;;;;;9.28;96596.40;;;;110930;1248;41144;-63
2022/01/31 10:35:47;;;;;;;13.10;3.10;;;;;8.58;96607.20;;;;111089;1249;41980;-61
2022/01/31 10:38:30;;;;;;;14.10;4.00;;;;;7.72;96601.60;;;;110736;1248;42724;-62
2022/01/31 10:52:04;;;;;;;11.50;3.50;;;;;9.20;96581.60;;;;111067;1248;41131;-62
2022/01/31 10:57:21;;;;;;;8.30;2.60;;;;;9.80;96561.40;;;;111163;1248;41734;-60
2022/01/31 11:00:00;;;;;;;9.30;2.70;;;;;12.48;96539.60;;;;111094;1247;41274;-60
2022/01/31 11:02:29;;;;;;;11.80;3.40;;;;;10.94;96552.20;;;;111019;1247;41723;-64
2022/01/31 11:05:00;;;;;;;13.80;3.20;;;;;10.94;96530.40;;;;111085;1247;41707;-60
2022/01/31 11:07:29;;;;;;;12.50;3.50;;;;;10.56;96535.40;;;;111069;1247;41183;-60
2022/01/31 11:09:59;;;;;;;11.20;3.40;;;;;12.66;96517.60;;;;111123;1249;42497;-63
2022/01/31 11:12:28;;;;;;;12.40;3.90;;;;;15.20;96506.60;;;;111318;1247;41878;-60
2022/01/31 11:14:58;;;;;;;11.20;3.50;;;;;13.40;96511.60;;;;111399;1247;41133;-61
2022/01/31 11:17:28;;;;;;;10.10;2.70;;;;;13.86;96501.00;;;;111386;1245;41590;-61
2022/01/31 11:19:58;;;;;;;10.20;2.80;;;;;11.30;96510.60;;;;111094;1247;41367;-62
2022/01/31 11:22:33;;;;;;;11.00;3.20;;;;;14.32;96508.60;;;;111166;1247;41940;-63
2022/01/31 11:25:19;;;;;;;13.30;3.00;;;;;14.64;96527.80;;;;111411;1247;40734;-64
2022/01/31 11:27:53;;;;;;;10.30;3.00;;;;;13.64;96510.80;;;;111395;1247;41134;-63
2022/01/31 11:30:23;;;;;;;12.60;2.60;;;;;13.60;96491.80;;;;111363;1246;41295;-59
2022/01/31 11:32:52;;;;;;;10.60;2.90;;;;;16.12;96486.20;;;;111425;1247;41180;-61
2022/01/31 11:35:23;;;;;;;12.90;3.50;;;;;15.58;96470.00;;;;111415;1247;41148;-60
2022/01/31 11:37:53;;;;;;;9.40;2.80;;;;;14.36;96490.40;;;;111129;1247;41156;-64
2022/01/31 11:40:22;;;;;;;9.00;2.60;;;;;12.72;96473.80;;;;111113;1247;41882;-59
2022/01/31 11:42:51;;;;;;;11.80;2.90;;;;;10.80;96505.80;;;;111431;1246;41252;-61
2022/01/31 11:45:27;;;;;;;12.40;3.40;;;;;11.02;96482.40;;;;111405;1247;41134;-61
2022/01/31 11:47:58;;;;;;;9.00;2.70;;;;;13.00;96462.20;;;;111141;1247;41622;-61
2022/01/31 11:50:28;;;;;;;8.40;2.70;;;;;14.44;96453.40;;;;111254;1247;41710;-62
2022/01/31 11:52:59;;;;;;;10.40;2.60;;;;;16.30;96451.40;;;;111165;1247;41977;-60
2022/01/31 11:55:36;;;;;;;12.40;3.30;;;;;17.88;96442.80;;;;111171;1247;41130;-64
2022/01/31 11:58:07;;;;;;;13.10;2.60;;;;;16.72;96441.60;;;;111107;1246;41147;-64
2022/01/31 12:00:37;;;;;;;;;;;;;19.26;96435.20;;;;111250;1247;41335;-63
2022/01/31 12:03:09;;;;;;;9.10;2.70;;;;;22.00;96431.00;;;;111309;1246;40727;-62
2022/01/31 12:05:40;;;;;;;8.40;2.60;;;;;23.58;96426.00;;;;111333;1246;41630;-59
2022/01/31 12:08:14;;;;;;;;;;;;;25.76;96421.60;;;;111156;1247;41147;-64
2022/01/31 12:10:53;;;;;;;11.00;2.60;;;;;28.16;96421.00;;;;111212;1246;41376;-60
2022/01/31 12:13:42;;;;;;;6.70;2.20;;;;;28.58;96414.20;;;;111114;1248;42109;-60
2022/01/31 12:16:37;;;;;;;8.90;2.00;;;;;24.36;96412.80;;;;111253;1246;41140;-63
2022/01/31 12:22:38;;;;;;;11.50;2.70;;;;;24.08;96428.60;;;;111056;1248;41138;-60
2022/01/31 12:25:22;;;;;;;10.60;2.40;;;;;20.62;96444.40;;;;111176;1247;41209;-63
2022/01/31 12:27:51;;;;;;;10.90;2.30;;;;;20.46;96443.00;;;;111155;1247;42110;-60
2022/01/31 12:30:49;;;;;;;6.70;2.10;;;;;19.84;96441.60;;;;111239;1246;41159;-60
2022/01/31 12:33:40;;;;;;;9.10;2.30;;;;;19.02;96439.00;;;;111058;1246;41180;-58
2022/01/31 12:36:09;;;;;;;8.80;2.90;;;;;18.04;96441.40;;;;111167;1247;41586;-59
2022/01/31 12:38:38;;;;;;;10.10;2.30;;;;;17.16;96445.60;;;;111220;1247;41138;-59
2022/01/31 12:41:31;;;;;;;10.50;2.80;;;;;16.44;96445.40;;;;111105;1248;41138;-61
2022/01/31 12:44:31;;;;;;;8.30;2.60;;;;;15.04;96450.80;;;;111162;1246;41258;-59
2022/01/31 12:47:18;;;;;;;10.70;2.80;;;;;13.84;96451.00;;;;111184;1247;41371;-64
2022/01/31 12:50:20;;;;;;;12.60;3.00;;;;;12.84;96449.60;;;;111017;1247;41724;-63
2022/01/31 12:52:49;;;;;;;12.10;3.00;;;;;10.88;96460.60;;;;111418;1247;41156;-60
2022/01/31 12:55:18;;;;;;;13.60;3.30;;;;;9.80;96462.40;;;;111464;1246;41973;-60
2022/01/31 12:57:52;;;;;;;10.20;2.80;;;;;8.10;96466.00;;;;111409;1247;41152;-63
2022/01/31 13:00:41;;;;;;;9.90;2.70;;;;;8.28;96438.80;;;;111100;1247;41160;-61
2022/01/31 13:03:35;;;;;;;8.10;2.80;;;;;10.12;96443.20;;;;111251;1247;41559;-64